Time;durP1;ratioP1;P1;durP2;ratioP2;P2;SDS_P1;SDS_P2;PMS_P1;PMS_P2;Temp;Humidity;BMP_temperature;BMP_pressure;BME280_temperature;BME280_humidity;BME280_pressure;Samples;Min_cycle;Max_cycle;Signal;HPM_P1;HPM_P2
2023/12/17 00:01:33;;;;;;;12.18;6.47;;;8.20;99.90;;;;;;5112165;28;20251;-52
2023/12/17 00:03:59;;;;;;;14.02;7.68;;;8.40;99.90;;;;;;5111835;28;20188;-53
2023/12/17 00:06:24;;;;;;;16.45;6.97;;;8.40;99.90;;;;;;5111225;28;20188;-54
2023/12/17 00:08:50;;;;;;;16.73;7.80;;;8.30;99.90;;;;;;5111593;28;20169;-53
2023/12/17 00:11:15;;;;;;;19.80;7.97;;;8.10;99.90;;;;;;5111544;28;20173;-53
2023/12/17 00:13:41;;;;;;;17.38;7.35;;;8.30;99.90;;;;;;5111437;28;20256;-51
2023/12/17 00:16:07;;;;;;;14.52;6.93;;;8.30;99.90;;;;;;5103664;28;20209;-51
2023/12/17 00:18:33;;;;;;;19.85;7.65;;;8.40;99.90;;;;;;5104027;28;20243;-52
2023/12/17 00:20:59;;;;;;;14.88;7.50;;;8.40;99.90;;;;;;5111367;28;20572;-51
2023/12/17 00:23:24;;;;;;;13.30;7.78;;;8.20;99.90;;;;;;5111312;28;20171;-57
2023/12/17 00:25:50;;;;;;;15.98;7.43;;;8.20;99.90;;;;;;5111493;28;20240;-58
2023/12/17 00:28:15;;;;;;;14.70;6.65;;;8.30;99.90;;;;;;5111270;28;20524;-58
2023/12/17 00:30:41;;;;;;;20.27;7.53;;;8.30;99.90;;;;;;5111288;28;20519;-57
2023/12/17 00:33:06;;;;;;;17.30;7.78;;;8.30;99.90;;;;;;5111548;28;20627;-57
2023/12/17 00:35:32;;;;;;;13.10;7.80;;;8.40;99.90;;;;;;5111435;28;20165;-58
2023/12/17 00:37:58;;;;;;;18.15;7.57;;;8.20;99.90;;;;;;5111369;28;20174;-57
2023/12/17 00:40:23;;;;;;;16.55;7.45;;;8.40;99.90;;;;;;5111146;28;20188;-57
2023/12/17 00:42:49;;;;;;;14.45;6.63;;;8.40;99.90;;;;;;5111095;28;20180;-57
2023/12/17 00:45:14;;;;;;;15.27;7.15;;;8.40;99.90;;;;;;5110809;28;20545;-57
2023/12/17 00:47:40;;;;;;;14.95;7.40;;;8.40;99.90;;;;;;5090767;28;20218;-58
2023/12/17 00:50:06;;;;;;;15.43;7.80;;;8.30;99.90;;;;;;5091167;28;20173;-57
2023/12/17 00:52:33;;;;;;;20.70;8.00;;;8.30;99.90;;;;;;5091089;28;20213;-59
2023/12/17 00:54:58;;;;;;;14.80;7.68;;;8.40;99.90;;;;;;5090748;28;20686;-59
2023/12/17 00:57:24;;;;;;;11.82;7.72;;;8.40;99.90;;;;;;5090528;28;20204;-59
2023/12/17 00:59:50;;;;;;;13.55;8.55;;;8.50;99.90;;;;;;5090667;28;20162;-59
2023/12/17 01:02:15;;;;;;;16.65;7.68;;;8.30;99.90;;;;;;5092895;28;20613;-57
2023/12/17 01:04:41;;;;;;;13.70;7.80;;;8.50;99.90;;;;;;5094548;28;20624;-57
2023/12/17 01:07:07;;;;;;;14.85;8.45;;;8.40;99.90;;;;;;5094649;28;20621;-59
2023/12/17 01:09:32;;;;;;;16.65;8.05;;;8.30;99.90;;;;;;5094918;28;20322;-58
2023/12/17 01:11:59;;;;;;;19.90;7.90;;;8.50;99.90;;;;;;5094484;28;20184;-57
2023/12/17 01:14:24;;;;;;;17.27;8.25;;;8.30;99.90;;;;;;5094811;28;20734;-57
2023/12/17 01:16:50;;;;;;;14.05;7.43;;;8.30;99.90;;;;;;5109977;28;20291;-58
2023/12/17 01:19:16;;;;;;;17.70;8.57;;;8.40;99.90;;;;;;5114393;28;20195;-58
2023/12/17 01:21:41;;;;;;;23.75;9.52;;;8.30;99.90;;;;;;5114720;28;20172;-57
2023/12/17 01:24:07;;;;;;;23.77;8.05;;;8.40;99.90;;;;;;5114607;28;20700;-56
2023/12/17 01:26:34;;;;;;;12.88;7.00;;;8.30;99.90;;;;;;5115107;28;20169;-56
2023/12/17 01:29:00;;;;;;;14.55;7.30;;;8.40;99.90;;;;;;5115292;28;20519;-58
2023/12/17 01:31:25;;;;;;;16.23;8.32;;;8.20;99.90;;;;;;5114524;28;20171;-54
2023/12/17 01:33:51;;;;;;;12.35;7.93;;;8.40;99.90;;;;;;5114565;28;20680;-57
2023/12/17 01:36:16;;;;;;;18.52;8.02;;;8.20;99.90;;;;;;5114607;28;20224;-55
2023/12/17 01:38:42;;;;;;;20.38;8.82;;;8.30;99.90;;;;;;5114434;28;20693;-54
2023/12/17 01:41:07;;;;;;;20.77;9.27;;;8.30;99.90;;;;;;5114252;28;20623;-54
2023/12/17 01:43:33;;;;;;;13.60;8.68;;;8.40;99.90;;;;;;5114802;28;20493;-55
2023/12/17 01:45:59;;;;;;;22.05;9.68;;;8.10;99.90;;;;;;5105676;28;20199;-55
2023/12/17 01:48:26;;;;;;;16.45;10.70;;;8.40;99.90;;;;;;5093815;28;20158;-54
2023/12/17 01:50:55;;;;;;;18.42;11.02;;;8.40;99.90;;;;;;5093808;28;20184;-54
2023/12/17 01:53:22;;;;;;;22.13;9.80;;;8.40;99.90;;;;;;5093669;28;20303;-54
2023/12/17 01:55:49;;;;;;;15.88;11.18;;;8.10;99.90;;;;;;5093668;28;20227;-55
2023/12/17 01:58:15;;;;;;;25.10;11.45;;;8.10;99.90;;;;;;5093708;28;20175;-52
2023/12/17 02:00:41;;;;;;;17.33;11.10;;;8.30;99.90;;;;;;5093664;28;20173;-53
2023/12/17 02:03:07;;;;;;;21.00;10.90;;;8.10;99.90;;;;;;5093438;28;20172;-51
2023/12/17 02:05:33;;;;;;;23.17;12.60;;;8.40;99.90;;;;;;5093884;28;20208;-52
2023/12/17 02:08:00;;;;;;;25.10;11.10;;;8.10;99.90;;;;;;5093442;28;20625;-56
2023/12/17 02:10:26;;;;;;;24.85;10.57;;;8.20;99.90;;;;;;5093686;28;20173;-51
2023/12/17 02:12:52;;;;;;;26.52;11.18;;;8.10;99.90;;;;;;5093237;28;20173;-51
2023/12/17 02:15:17;;;;;;;23.77;10.07;;;8.10;99.90;;;;;;5095467;28;20168;-52
2023/12/17 02:17:43;;;;;;;24.45;11.80;;;8.00;99.90;;;;;;5113354;28;20212;-51
2023/12/17 02:20:09;;;;;;;15.68;9.35;;;8.00;99.90;;;;;;5113495;28;20175;-54
2023/12/17 02:22:36;;;;;;;19.92;9.75;;;8.00;99.90;;;;;;5113498;28;20169;-50
2023/12/17 02:25:01;;;;;;;17.02;9.77;;;8.20;99.90;;;;;;5113968;28;20172;-53
2023/12/17 02:27:27;;;;;;;13.75;9.10;;;8.10;99.90;;;;;;5113427;28;20210;-51
2023/12/17 02:29:54;;;;;;;13.88;9.30;;;8.00;99.90;;;;;;5113402;28;20165;-50
2023/12/17 02:32:21;;;;;;;11.23;6.82;;;8.00;99.90;;;;;;5113642;28;20180;-53
2023/12/17 02:34:47;;;;;;;13.75;8.25;;;8.10;99.90;;;;;;5113354;28;20173;-52
2023/12/17 02:37:14;;;;;;;9.15;6.93;;;8.00;99.90;;;;;;5113216;28;20208;-52
2023/12/17 02:39:39;;;;;;;15.48;8.07;;;7.80;99.90;;;;;;5113224;28;20244;-52
2023/12/17 02:42:05;;;;;;;16.52;8.05;;;7.90;99.90;;;;;;5113191;28;20571;-50
2023/12/17 02:44:31;;;;;;;11.90;7.75;;;8.00;99.90;;;;;;5113593;28;20258;-52
2023/12/17 02:46:57;;;;;;;11.65;7.28;;;7.80;99.90;;;;;;5096184;28;20169;-52
2023/12/17 02:49:26;;;;;;;10.48;7.53;;;7.80;99.90;;;;;;5112970;28;20168;-52
2023/12/17 02:51:52;;;;;;;16.70;7.07;;;7.80;99.90;;;;;;5111127;28;20212;-52
2023/12/17 02:54:18;;;;;;;13.73;7.05;;;7.70;99.90;;;;;;5112875;28;20171;-52
2023/12/17 02:56:44;;;;;;;10.48;7.40;;;7.90;99.90;;;;;;5113042;28;20556;-53
2023/12/17 02:59:11;;;;;;;16.73;9.48;;;7.80;99.90;;;;;;5112893;28;20172;-51
2023/12/17 03:01:37;;;;;;;12.18;7.40;;;7.90;99.90;;;;;;5113105;28;20594;-53
2023/12/17 03:04:03;;;;;;;16.92;9.18;;;7.70;99.90;;;;;;5113188;28;20248;-52
2023/12/17 03:06:29;;;;;;;11.63;7.68;;;8.00;99.90;;;;;;5112656;28;20165;-53
2023/12/17 03:08:55;;;;;;;12.52;7.78;;;7.90;99.90;;;;;;5112628;28;20171;-53
2023/12/17 03:11:20;;;;;;;14.45;8.50;;;8.00;99.90;;;;;;5112756;28;20207;-52
2023/12/17 03:13:46;;;;;;;12.80;7.85;;;7.90;99.90;;;;;;5112504;28;20173;-53
2023/12/17 03:16:11;;;;;;;16.80;7.55;;;7.90;99.90;;;;;;5099996;28;20262;-51
2023/12/17 03:18:37;;;;;;;13.65;7.03;;;8.00;99.90;;;;;;5091974;28;20184;-53
2023/12/17 03:21:07;;;;;;;17.40;9.27;;;8.00;99.90;;;;;;5092498;28;20248;-51
2023/12/17 03:23:35;;;;;;;10.85;6.28;;;7.80;99.90;;;;;;5092187;28;20248;-52
2023/12/17 03:26:03;;;;;;;11.40;6.22;;;7.80;99.90;;;;;;5092370;28;20658;-51
2023/12/17 03:28:28;;;;;;;6.03;3.80;;;7.90;99.90;;;;;;5092241;28;20201;-52
2023/12/17 03:30:54;;;;;;;9.30;6.03;;;7.80;99.90;;;;;;5091940;28;20675;-52
2023/12/17 03:33:19;;;;;;;8.32;5.20;;;7.90;99.90;;;;;;5091939;28;20169;-52
2023/12/17 03:35:46;;;;;;;9.65;5.72;;;7.70;99.90;;;;;;5091841;28;20257;-52
2023/12/17 03:38:12;;;;;;;12.50;5.85;;;7.70;99.90;;;;;;5091794;28;20157;-51
2023/12/17 03:40:38;;;;;;;12.32;5.60;;;7.70;99.90;;;;;;5091952;28;20169;-51
2023/12/17 03:43:04;;;;;;;8.73;5.13;;;7.70;99.90;;;;;;5092118;28;20161;-53
2023/12/17 03:45:31;;;;;;;10.57;5.80;;;7.70;99.90;;;;;;5092648;28;20264;-51
2023/12/17 03:47:57;;;;;;;9.68;5.93;;;7.90;99.90;;;;;;5091830;28;20173;-51
2023/12/17 03:50:22;;;;;;;9.10;5.97;;;7.90;99.90;;;;;;5091790;28;20169;-52
2023/12/17 03:52:48;;;;;;;9.27;5.40;;;7.90;99.90;;;;;;5091288;28;20239;-52
2023/12/17 03:55:14;;;;;;;8.57;4.75;;;7.90;99.90;;;;;;5091763;28;20262;-50
2023/12/17 03:57:41;;;;;;;7.97;5.18;;;7.90;99.90;;;;;;5091323;28;20617;-51
2023/12/17 04:00:09;;;;;;;6.97;4.65;;;7.70;99.90;;;;;;5091584;28;20169;-52
2023/12/17 04:02:36;;;;;;;7.63;4.50;;;7.70;99.90;;;;;;5091216;28;20706;-51
2023/12/17 04:05:01;;;;;;;6.90;5.22;;;7.80;99.90;;;;;;5091655;28;20173;-51
2023/12/17 04:07:29;;;;;;;7.07;4.80;;;7.80;99.90;;;;;;5091312;28;20171;-53
2023/12/17 04:09:56;;;;;;;6.07;4.55;;;7.60;99.90;;;;;;5091131;28;20169;-56
2023/12/17 04:12:21;;;;;;;7.95;5.00;;;7.60;99.90;;;;;;5091299;28;20169;-57
2023/12/17 04:14:47;;;;;;;9.60;4.68;;;7.80;99.90;;;;;;5093216;28;20162;-57
2023/12/17 04:17:12;;;;;;;8.10;4.65;;;7.80;99.90;;;;;;5111187;28;20204;-58
2023/12/17 04:19:38;;;;;;;7.75;4.57;;;7.80;99.90;;;;;;5111282;28;20192;-57
2023/12/17 04:22:03;;;;;;;6.80;4.32;;;7.80;99.90;;;;;;5111860;28;20192;-57
2023/12/17 04:24:29;;;;;;;6.82;4.45;;;7.80;99.90;;;;;;5111430;28;20196;-57
2023/12/17 04:26:54;;;;;;;7.45;4.97;;;7.80;99.90;;;;;;5111270;28;20203;-57
2023/12/17 04:29:20;;;;;;;7.13;4.20;;;7.80;99.90;;;;;;5111570;28;20172;-57
2023/12/17 04:31:46;;;;;;;6.82;4.03;;;7.70;99.90;;;;;;5111246;28;20165;-57
2023/12/17 04:34:11;;;;;;;6.72;4.47;;;7.80;99.90;;;;;;5111241;28;20297;-57
2023/12/17 04:36:41;;;;;;;8.43;5.07;;;7.70;99.90;;;;;;5110609;28;20318;-57
2023/12/17 04:39:06;;;;;;;6.63;5.03;;;7.80;99.90;;;;;;5110919;28;20180;-56
2023/12/17 04:41:33;;;;;;;8.02;4.80;;;7.70;99.90;;;;;;5111585;28;20538;-57
2023/12/17 04:43:59;;;;;;;7.15;4.95;;;7.60;99.90;;;;;;5111510;28;20572;-57
2023/12/17 04:46:25;;;;;;;9.68;5.20;;;7.80;99.90;;;;;;5094853;28;20234;-57
2023/12/17 04:48:50;;;;;;;9.05;4.47;;;7.60;99.90;;;;;;5090888;28;20157;-57
2023/12/17 04:51:16;;;;;;;14.15;5.07;;;7.60;99.90;;;;;;5090731;28;20173;-57
2023/12/17 04:53:42;;;;;;;8.98;5.05;;;7.70;99.90;;;;;;5090625;28;20221;-57
2023/12/17 04:56:08;;;;;;;15.18;4.50;;;7.70;99.90;;;;;;5090633;28;20664;-58
2023/12/17 04:58:34;;;;;;;8.52;5.38;;;7.60;99.90;;;;;;5091365;28;20168;-55
2023/12/17 05:01:00;;;;;;;8.00;5.75;;;7.70;99.90;;;;;;5091216;28;20162;-57
2023/12/17 05:03:25;;;;;;;9.23;4.70;;;7.50;99.90;;;;;;5090746;28;20583;-58
2023/12/17 05:05:52;;;;;;;9.10;5.72;;;7.70;99.90;;;;;;5091083;28;20526;-57
2023/12/17 05:08:18;;;;;;;8.88;5.05;;;7.60;99.90;;;;;;5086072;28;20170;-56
2023/12/17 05:10:44;;;;;;;10.88;5.85;;;7.80;99.90;;;;;;5091032;28;20169;-57
2023/12/17 05:13:09;;;;;;;7.68;5.47;;;7.70;99.90;;;;;;5090489;28;20174;-56
2023/12/17 05:15:35;;;;;;;8.73;4.97;;;7.70;99.90;;;;;;5090106;28;20181;-56
2023/12/17 05:18:00;;;;;;;11.80;5.68;;;7.50;99.90;;;;;;5090801;28;20226;-56
2023/12/17 05:20:26;;;;;;;9.55;5.90;;;7.50;99.90;;;;;;5090571;28;20173;-57
2023/12/17 05:22:52;;;;;;;7.03;4.47;;;7.70;99.90;;;;;;5090432;28;20172;-56
2023/12/17 05:25:17;;;;;;;7.70;5.28;;;7.60;99.90;;;;;;5090431;28;20162;-57
2023/12/17 05:27:43;;;;;;;8.02;5.35;;;7.70;99.90;;;;;;5090380;28;20690;-57
2023/12/17 05:30:09;;;;;;;8.75;4.85;;;7.50;99.90;;;;;;5090369;28;20170;-57
2023/12/17 05:32:34;;;;;;;7.95;4.80;;;7.70;99.90;;;;;;5090506;28;20257;-55
2023/12/17 05:35:00;;;;;;;9.68;4.95;;;7.70;99.90;;;;;;5092631;28;20622;-58
2023/12/17 05:37:25;;;;;;;7.10;4.93;;;7.70;99.90;;;;;;5100354;28;20197;-57
2023/12/17 05:39:51;;;;;;;8.52;5.18;;;7.60;99.90;;;;;;5090500;28;20260;-58
2023/12/17 05:42:16;;;;;;;6.88;4.93;;;7.50;99.90;;;;;;5090270;28;20169;-51
2023/12/17 05:44:42;;;;;;;9.20;5.35;;;7.40;99.90;;;;;;5090689;28;20168;-51
2023/12/17 05:47:07;;;;;;;8.77;4.80;;;7.60;99.90;;;;;;5090993;28;20161;-51
2023/12/17 05:49:37;;;;;;;8.43;4.28;;;7.70;99.90;;;;;;5094235;28;20173;-51
2023/12/17 05:52:04;;;;;;;6.57;4.53;;;7.60;99.90;;;;;;5094158;28;20197;-51
2023/12/17 05:54:30;;;;;;;7.65;4.00;;;7.60;99.90;;;;;;5094188;28;20641;-52
2023/12/17 05:56:55;;;;;;;5.65;4.05;;;7.50;99.90;;;;;;5093951;28;20302;-52
2023/12/17 05:59:21;;;;;;;7.10;4.43;;;7.60;99.90;;;;;;5093650;28;20680;-52
2023/12/17 06:01:46;;;;;;;7.72;4.40;;;7.50;99.90;;;;;;5093643;28;20170;-52
2023/12/17 06:04:12;;;;;;;7.57;4.53;;;7.60;99.90;;;;;;5093560;28;20168;-52
2023/12/17 06:06:37;;;;;;;6.97;4.70;;;7.50;99.90;;;;;;5112673;28;20179;-51
2023/12/17 06:09:03;;;;;;;4.60;4.15;;;7.60;99.90;;;;;;5114199;28;20200;-51
2023/12/17 06:11:29;;;;;;;5.65;3.92;;;7.40;99.90;;;;;;5114556;28;20165;-52
2023/12/17 06:13:54;;;;;;;5.57;4.43;;;7.50;99.90;;;;;;5113730;28;20173;-52
2023/12/17 06:16:20;;;;;;;4.57;3.63;;;7.60;99.90;;;;;;5113662;28;20230;-51
2023/12/17 06:18:46;;;;;;;4.88;4.38;;;7.40;99.90;;;;;;5113976;28;20251;-51
2023/12/17 06:21:26;;;;;;;4.97;4.30;;;7.60;99.90;;;;;;5113889;28;20165;-51
2023/12/17 06:23:57;;;;;;;6.00;4.50;;;7.40;99.90;;;;;;5113772;28;20526;-51
2023/12/17 06:26:26;;;;;;;7.85;4.65;;;7.40;99.90;;;;;;5113917;28;20169;-52
2023/12/17 06:28:52;;;;;;;6.53;4.88;;;7.70;99.90;;;;;;5113418;28;20579;-50
2023/12/17 06:31:17;;;;;;;8.30;5.25;;;7.60;99.90;;;;;;5113601;28;20192;-51
2023/12/17 06:33:43;;;;;;;6.68;4.32;;;7.50;99.90;;;;;;5113263;28;20165;-51
2023/12/17 06:36:09;;;;;;;6.20;4.63;;;7.40;99.90;;;;;;5097240;28;20197;-51
2023/12/17 06:38:35;;;;;;;5.70;4.40;;;7.50;99.90;;;;;;5092752;28;20583;-52
2023/12/17 06:41:01;;;;;;;5.10;4.03;;;7.50;99.90;;;;;;5093359;28;20172;-51
2023/12/17 06:43:26;;;;;;;5.10;3.60;;;7.60;99.90;;;;;;5092895;28;20169;-51
2023/12/17 06:45:52;;;;;;;6.35;4.82;;;7.50;99.90;;;;;;5092718;28;20174;-51
2023/12/17 06:48:18;;;;;;;4.75;3.53;;;7.40;99.90;;;;;;5092501;28;20265;-53
2023/12/17 06:50:43;;;;;;;6.97;4.32;;;7.50;99.90;;;;;;5092324;28;20180;-53
2023/12/17 06:53:15;;;;;;;4.63;3.30;;;7.50;99.90;;;;;;5074135;28;20275;-53
2023/12/17 06:55:41;;;;;;;3.45;2.78;;;7.50;99.90;;;;;;5092881;28;20177;-53
2023/12/17 06:58:06;;;;;;;6.53;3.55;;;7.50;99.90;;;;;;5092359;28;20257;-53
2023/12/17 07:00:32;;;;;;;6.35;4.07;;;7.60;99.90;;;;;;5092211;28;20629;-53
2023/12/17 07:02:59;;;;;;;3.95;3.60;;;7.60;99.90;;;;;;5092348;28;20166;-53
2023/12/17 07:05:25;;;;;;;4.63;3.13;;;7.70;99.90;;;;;;5092449;28;20180;-50
2023/12/17 07:07:51;;;;;;;3.90;3.50;;;7.70;99.90;;;;;;5107717;28;20173;-52
2023/12/17 07:10:16;;;;;;;3.95;3.53;;;7.60;99.90;;;;;;5112612;28;20184;-53
2023/12/17 07:12:42;;;;;;;4.45;3.22;;;7.60;99.90;;;;;;5112758;28;20165;-52
2023/12/17 07:15:08;;;;;;;5.60;3.60;;;7.60;99.90;;;;;;5112462;28;20175;-52
2023/12/17 07:17:34;;;;;;;3.92;3.38;;;7.50;99.90;;;;;;5112364;28;20566;-51
2023/12/17 07:19:59;;;;;;;5.70;3.60;;;7.50;99.90;;;;;;5112906;28;20161;-52
2023/12/17 07:22:25;;;;;;;4.65;3.42;;;7.60;99.90;;;;;;5112656;28;20255;-51
2023/12/17 07:24:50;;;;;;;3.88;3.35;;;7.60;99.90;;;;;;5112368;28;20163;-53
2023/12/17 07:27:16;;;;;;;5.25;4.38;;;7.60;99.90;;;;;;5112581;28;20164;-52
2023/12/17 07:29:42;;;;;;;5.82;4.60;;;7.60;99.90;;;;;;5112148;28;20164;-51
2023/12/17 07:32:08;;;;;;;5.63;4.65;;;7.70;99.90;;;;;;5112207;28;20176;-56
2023/12/17 07:34:34;;;;;;;7.53;4.65;;;7.70;99.90;;;;;;5107533;28;20180;-50
2023/12/17 07:37:00;;;;;;;7.60;5.05;;;7.60;99.90;;;;;;5092083;28;20205;-53
2023/12/17 07:39:26;;;;;;;6.70;4.70;;;7.70;99.90;;;;;;5091740;28;20162;-51
2023/12/17 07:41:52;;;;;;;10.25;6.45;;;7.80;99.90;;;;;;5091250;28;20252;-51
2023/12/17 07:44:18;;;;;;;6.53;5.00;;;7.80;99.90;;;;;;5091674;28;20272;-51
2023/12/17 07:46:43;;;;;;;10.98;6.47;;;7.90;99.90;;;;;;5091977;28;20196;-53
2023/12/17 07:49:09;;;;;;;11.13;6.90;;;7.80;99.90;;;;;;5091216;28;20551;-51
2023/12/17 07:51:35;;;;;;;16.30;11.38;;;7.80;99.90;;;;;;5091219;28;20254;-53
2023/12/17 07:54:00;;;;;;;7.13;5.30;;;7.90;99.90;;;;;;5091867;28;20643;-52
2023/12/17 07:56:26;;;;;;;19.52;11.57;;;7.80;99.90;;;;;;5091417;28;20208;-52
2023/12/17 07:58:54;;;;;;;89.57;62.10;;;7.90;99.90;;;;;;5091717;28;20284;-58
2023/12/17 08:01:29;;;;;;;12.48;7.00;;;7.90;99.90;;;;;;5091464;28;20173;-57
2023/12/17 08:03:55;;;;;;;11.82;7.70;;;7.80;99.90;;;;;;5091948;28;20624;-57
2023/12/17 08:06:21;;;;;;;9.05;6.10;;;8.00;99.90;;;;;;5091147;28;20530;-57
2023/12/17 08:08:47;;;;;;;7.68;5.95;;;8.00;99.90;;;;;;5091259;28;20162;-57
2023/12/17 08:11:12;;;;;;;11.50;6.55;;;8.00;99.90;;;;;;5091348;28;20169;-57
2023/12/17 08:13:38;;;;;;;11.15;6.80;;;7.90;99.90;;;;;;5091219;28;20201;-57
2023/12/17 08:16:04;;;;;;;10.38;6.60;;;8.00;99.90;;;;;;5073264;28;20284;-52
2023/12/17 08:18:29;;;;;;;9.07;6.80;;;8.00;99.90;;;;;;5091687;28;20256;-56
2023/12/17 08:20:57;;;;;;;12.40;7.40;;;8.00;99.90;;;;;;5091004;28;20214;-57
2023/12/17 08:23:22;;;;;;;12.73;7.40;;;8.00;99.90;;;;;;5091159;28;20177;-55
2023/12/17 08:25:48;;;;;;;14.75;7.70;;;8.00;99.90;;;;;;5090921;28;20175;-61
2023/12/17 08:28:13;;;;;;;13.52;6.72;;;7.90;99.90;;;;;;5091036;28;20257;-59
2023/12/17 08:30:39;;;;;;;15.35;7.03;;;8.00;99.90;;;;;;5090917;28;20177;-60
2023/12/17 08:33:05;;;;;;;11.68;6.60;;;8.00;99.90;;;;;;5090570;28;20229;-59
2023/12/17 08:35:31;;;;;;;12.45;7.32;;;7.90;99.90;;;;;;5105360;28;20168;-59
2023/12/17 08:38:03;;;;;;;15.95;7.72;;;8.00;99.90;;;;;;5110850;28;20208;-60
2023/12/17 08:40:33;;;;;;;12.15;6.97;;;8.10;99.90;;;;;;5112131;28;20168;-57
2023/12/17 08:43:02;;;;;;;11.43;7.65;;;8.10;99.90;;;;;;5111544;28;20206;-60
2023/12/17 08:45:28;;;;;;;11.55;7.68;;;8.00;99.90;;;;;;5110911;28;20163;-59
2023/12/17 08:47:53;;;;;;;9.30;7.45;;;7.90;99.90;;;;;;5111154;28;20526;-56
2023/12/17 08:50:19;;;;;;;10.68;7.47;;;8.00;99.90;;;;;;5111178;28;20261;-59
2023/12/17 08:52:44;;;;;;;10.80;6.93;;;8.00;99.90;;;;;;5110961;28;20261;-59
2023/12/17 08:55:10;;;;;;;10.93;7.82;;;8.10;99.90;;;;;;5110804;28;20203;-59
2023/12/17 08:57:37;;;;;;;10.45;7.15;;;8.20;99.90;;;;;;5110840;28;20196;-57
2023/12/17 09:00:04;;;;;;;8.48;6.70;;;8.10;99.90;;;;;;5111230;28;20628;-59
2023/12/17 09:02:30;;;;;;;9.10;6.60;;;8.10;99.90;;;;;;5111241;28;20164;-58
2023/12/17 09:04:57;;;;;;;10.55;7.57;;;8.20;99.90;;;;;;5110865;28;20160;-56
2023/12/17 09:07:23;;;;;;;8.88;6.15;;;8.20;99.90;;;;;;5111138;28;20176;-56
2023/12/17 09:09:48;;;;;;;9.10;6.38;;;8.20;99.90;;;;;;5110825;28;20250;-59
2023/12/17 09:12:14;;;;;;;10.57;6.93;;;8.40;99.90;;;;;;5110368;28;20165;-57
2023/12/17 09:14:39;;;;;;;7.80;6.43;;;8.20;99.90;;;;;;5110730;28;20173;-56
2023/12/17 09:17:05;;;;;;;9.38;6.32;;;8.20;99.90;;;;;;5110532;28;20204;-59
2023/12/17 09:19:30;;;;;;;8.65;5.80;;;8.10;99.90;;;;;;5111141;28;20161;-55
2023/12/17 09:21:56;;;;;;;9.10;6.70;;;8.10;99.90;;;;;;5111110;28;20173;-56
2023/12/17 09:24:21;;;;;;;7.65;5.47;;;8.00;99.90;;;;;;5114802;28;20193;-59
2023/12/17 09:26:47;;;;;;;8.23;5.80;;;8.20;99.90;;;;;;5114691;28;20164;-55
2023/12/17 09:29:12;;;;;;;6.53;5.15;;;8.20;99.90;;;;;;5114552;28;20500;-56
2023/12/17 09:31:39;;;;;;;8.38;6.13;;;8.20;99.90;;;;;;5114794;28;20670;-59
2023/12/17 09:34:06;;;;;;;9.13;5.88;;;8.20;99.90;;;;;;5109841;28;20452;-59
2023/12/17 09:36:31;;;;;;;9.30;6.15;;;8.10;99.90;;;;;;5094368;28;20204;-56
2023/12/17 09:38:57;;;;;;;9.68;5.65;;;8.20;99.90;;;;;;5094030;28;20170;-57
2023/12/17 09:41:23;;;;;;;7.05;5.50;;;8.20;99.90;;;;;;5094065;28;20182;-59
2023/12/17 09:43:49;;;;;;;7.38;4.95;;;8.30;99.90;;;;;;5094225;28;20635;-59
2023/12/17 09:46:15;;;;;;;10.25;5.80;;;8.30;99.90;;;;;;5094262;28;20197;-58
2023/12/17 09:48:41;;;;;;;6.45;5.13;;;8.20;99.90;;;;;;5094181;28;20176;-59
2023/12/17 09:51:07;;;;;;;7.88;5.03;;;8.30;99.90;;;;;;5093826;28;20165;-59
2023/12/17 09:53:35;;;;;;;8.40;6.22;;;8.40;99.90;;;;;;5093965;28;20213;-57
2023/12/17 09:56:00;;;;;;;9.65;6.40;;;8.30;99.90;;;;;;5094404;28;20177;-57
2023/12/17 09:58:26;;;;;;;7.75;5.63;;;8.30;99.90;;;;;;5093677;28;20202;-59
2023/12/17 10:00:52;;;;;;;6.93;5.55;;;8.40;99.90;;;;;;5093817;28;20215;-59
2023/12/17 10:03:19;;;;;;;9.02;5.43;;;8.40;99.90;;;;;;5093725;28;20648;-59
2023/12/17 10:05:51;;;;;;;9.13;5.85;;;8.30;99.90;;;;;;5109034;28;20688;-59
2023/12/17 10:08:18;;;;;;;9.90;5.63;;;8.30;99.90;;;;;;5093352;28;20575;-58
2023/12/17 10:10:43;;;;;;;8.02;5.45;;;8.40;99.90;;;;;;5092876;28;20195;-58
2023/12/17 10:13:12;;;;;;;9.35;5.20;;;8.50;99.90;;;;;;5093338;28;20170;-54
2023/12/17 10:15:38;;;;;;;7.93;5.65;;;8.30;99.90;;;;;;5093257;28;20169;-57
2023/12/17 10:18:04;;;;;;;7.32;4.68;;;8.40;99.90;;;;;;5093464;28;20209;-58
2023/12/17 10:20:30;;;;;;;6.40;4.95;;;8.50;99.90;;;;;;5093705;28;20251;-56
2023/12/17 10:23:00;;;;;;;9.32;5.97;;;8.40;99.90;;;;;;5093445;28;20173;-58
2023/12/17 10:25:27;;;;;;;7.03;5.15;;;8.40;99.90;;;;;;5093132;28;20685;-59
2023/12/17 10:27:56;;;;;;;6.25;5.20;;;8.50;99.90;;;;;;5093443;28;20196;-58
2023/12/17 10:30:29;;;;;;;7.97;5.55;;;8.60;99.90;;;;;;5093243;28;20173;-58
2023/12/17 10:32:55;;;;;;;8.50;5.95;;;8.50;99.90;;;;;;5092699;28;20181;-58
2023/12/17 10:35:25;;;;;;;6.68;5.13;;;8.40;99.90;;;;;;5092246;28;20654;-59
2023/12/17 10:37:58;;;;;;;6.38;5.35;;;8.50;99.90;;;;;;5092770;28;20237;-56
2023/12/17 10:40:25;;;;;;;6.63;5.53;;;8.40;99.90;;;;;;5092839;28;20180;-56
2023/12/17 10:42:51;;;;;;;8.80;6.10;;;8.40;99.90;;;;;;5092375;28;20180;-54
2023/12/17 10:45:21;;;;;;;9.60;6.15;;;8.40;99.90;;;;;;5092975;28;20240;-52
2023/12/17 10:47:56;;;;;;;7.88;5.18;;;8.30;99.90;;;;;;5093040;28;20161;-51
2023/12/17 10:50:26;;;;;;;5.63;4.97;;;8.20;99.90;;;;;;5092623;28;20231;-53
2023/12/17 10:52:51;;;;;;;5.30;4.32;;;8.30;99.90;;;;;;5092180;28;20759;-52
2023/12/17 10:55:18;;;;;;;5.13;4.20;;;8.30;99.90;;;;;;5092585;28;20244;-52
2023/12/17 10:57:52;;;;;;;5.05;4.55;;;8.30;99.90;;;;;;5092219;28;20287;-52
2023/12/17 11:00:21;;;;;;;7.88;4.85;;;8.30;99.90;;;;;;5092524;28;20164;-51
2023/12/17 11:02:50;;;;;;;5.70;5.03;;;8.30;99.90;;;;;;5092784;28;20165;-51
2023/12/17 11:05:16;;;;;;;7.18;4.82;;;8.50;99.90;;;;;;5108451;28;20183;-51
2023/12/17 11:07:41;;;;;;;5.25;4.28;;;8.60;99.90;;;;;;5112648;28;20248;-52
2023/12/17 11:10:10;;;;;;;7.00;4.38;;;8.80;99.90;;;;;;5112657;28;20157;-53
2023/12/17 11:12:36;;;;;;;5.88;4.75;;;8.80;99.90;;;;;;5112598;28;20160;-52
2023/12/17 11:15:02;;;;;;;5.57;4.93;;;8.80;99.90;;;;;;5112876;28;20218;-51
2023/12/17 11:17:28;;;;;;;4.22;3.75;;;8.80;99.90;;;;;;5112321;28;20200;-53
2023/12/17 11:19:53;;;;;;;6.80;4.18;;;8.80;99.90;;;;;;5112435;28;20165;-52
2023/12/17 11:22:22;;;;;;;7.70;3.63;;;8.70;99.90;;;;;;5112698;28;20222;-53
2023/12/17 11:24:48;;;;;;;5.13;4.35;;;8.60;99.90;;;;;;5112577;28;20169;-51
2023/12/17 11:27:15;;;;;;;4.78;3.85;;;8.60;99.90;;;;;;5094042;28;20180;-53
2023/12/17 11:29:41;;;;;;;4.65;3.85;;;8.70;99.90;;;;;;5112159;28;20161;-52
2023/12/17 11:32:08;;;;;;;4.72;4.15;;;8.90;99.90;;;;;;5112406;28;20764;-52
2023/12/17 11:34:35;;;;;;;5.35;3.30;;;8.80;99.90;;;;;;5099649;28;20196;-52
2023/12/17 11:37:01;;;;;;;4.80;3.40;;;8.90;99.90;;;;;;5108837;28;20211;-54
2023/12/17 11:39:28;;;;;;;5.82;4.03;;;8.80;99.90;;;;;;5111901;28;20521;-58
2023/12/17 11:41:54;;;;;;;5.30;4.13;;;8.80;99.90;;;;;;5112052;28;20164;-59
2023/12/17 11:44:20;;;;;;;4.25;3.63;;;8.80;99.90;;;;;;5111890;28;20161;-58
2023/12/17 11:46:49;;;;;;;5.45;3.90;;;8.80;99.90;;;;;;5111791;28;20181;-58
2023/12/17 11:49:25;;;;;;;4.35;3.60;;;8.80;99.90;;;;;;5111870;28;20647;-52
2023/12/17 11:51:51;;;;;;;5.45;3.58;;;8.80;99.90;;;;;;5093154;28;20212;-56
2023/12/17 11:54:22;;;;;;;6.07;3.83;;;8.90;99.90;;;;;;5111641;28;20191;-58
2023/12/17 11:56:48;;;;;;;6.20;4.00;;;8.90;99.90;;;;;;5111723;28;20279;-59
2023/12/17 11:59:15;;;;;;;8.75;4.25;;;8.90;99.90;;;;;;5110613;28;20263;-55
2023/12/17 12:01:41;;;;;;;8.95;4.53;;;8.90;99.90;;;;;;5111488;28;20241;-58
2023/12/17 12:04:07;;;;;;;7.03;4.07;;;9.00;99.90;;;;;;5102148;28;20172;-59
2023/12/17 12:06:32;;;;;;;5.53;3.80;;;8.90;99.90;;;;;;5091496;28;20173;-58
2023/12/17 12:08:59;;;;;;;5.20;3.80;;;8.90;99.90;;;;;;5090856;28;20161;-57
2023/12/17 12:11:32;;;;;;;5.15;4.07;;;8.90;99.90;;;;;;5091051;28;20642;-56
2023/12/17 12:13:58;;;;;;;9.43;4.97;;;9.00;99.90;;;;;;5090598;28;20157;-58
2023/12/17 12:16:24;;;;;;;8.38;4.40;;;9.00;99.90;;;;;;5090870;28;20562;-58
2023/12/17 12:19:02;;;;;;;9.32;6.30;;;9.00;99.90;;;;;;5091096;28;20529;-58
2023/12/17 12:21:28;;;;;;;15.60;6.60;;;9.10;99.90;;;;;;5090840;28;20168;-57
2023/12/17 12:23:55;;;;;;;36.15;30.65;;;9.10;99.90;;;;;;5090525;28;20161;-59
2023/12/17 12:26:22;;;;;;;20.42;16.77;;;9.10;99.90;;;;;;5090683;28;20173;-57
2023/12/17 12:29:06;;;;;;;12.20;6.13;;;9.20;99.90;;;;;;5090657;28;20629;-59
2023/12/17 12:31:32;;;;;;;10.85;7.88;;;9.30;99.90;;;;;;5090970;28;20169;-57
2023/12/17 12:33:59;;;;;;;7.97;6.15;;;9.30;99.90;;;;;;5095812;28;20690;-58
2023/12/17 12:36:40;;;;;;;12.15;8.98;;;9.20;99.90;;;;;;5097362;28;20236;-56
2023/12/17 12:39:06;;;;;;;17.05;12.48;;;9.20;99.90;;;;;;5090641;28;20173;-58
2023/12/17 12:41:32;;;;;;;19.42;12.75;;;9.30;99.90;;;;;;5094216;28;20628;-55
2023/12/17 12:43:59;;;;;;;20.27;16.13;;;9.30;99.90;;;;;;5100655;28;20161;-51
2023/12/17 12:46:25;;;;;;;16.10;9.50;;;9.30;99.90;;;;;;5101534;28;20176;-53
2023/12/17 12:48:58;;;;;;;24.45;17.33;;;9.40;99.90;;;;;;5101689;28;20180;-58